createdAt,value
2023-04-28T00:00:55.165Z,12.09
2023-04-28T00:03:22.946Z,12.17
2023-04-28T00:05:50.770Z,12.23
2023-04-28T00:08:18.594Z,11.89
2023-04-28T00:10:46.398Z,11.76
2023-04-28T00:13:14.190Z,11.63
2023-04-28T00:15:41.909Z,11.57
2023-04-28T00:18:11.283Z,11.62
2023-04-28T00:20:38.935Z,11.52
2023-04-28T00:23:06.594Z,11.52
2023-04-28T00:25:34.498Z,11.51
2023-04-28T00:28:02.860Z,11.54
2023-04-28T00:30:30.884Z,11.52
2023-04-28T00:32:58.906Z,11.36
2023-04-28T00:35:28.398Z,11.45
2023-04-28T00:37:57.355Z,11.52
2023-04-28T00:40:34.122Z,11.60
2023-04-28T00:43:02.095Z,11.66
2023-04-28T00:45:30.103Z,11.61
2023-04-28T00:47:58.631Z,11.57
2023-04-28T00:50:28.907Z,11.50
2023-04-28T00:52:59.084Z,11.40
2023-04-28T00:55:29.073Z,11.28
2023-04-28T00:57:59.246Z,11.21
2023-04-28T01:00:27.804Z,11.38
2023-04-28T01:02:56.940Z,11.43
2023-04-28T01:05:28.296Z,11.48
2023-04-28T01:07:57.910Z,11.45
2023-04-28T01:10:25.913Z,11.37
2023-04-28T01:12:54.432Z,11.36
2023-04-28T01:15:24.731Z,11.34
2023-04-28T01:17:56.583Z,11.33
2023-04-28T01:20:24.456Z,11.27
2023-04-28T01:22:54.082Z,11.42
2023-04-28T01:25:23.579Z,11.42
2023-04-28T01:27:52.995Z,11.44
2023-04-28T01:30:21.075Z,11.35
2023-04-28T01:32:49.210Z,11.38
2023-04-28T01:35:17.414Z,11.37
2023-04-28T01:37:45.898Z,11.36
2023-04-28T01:40:14.385Z,11.37
2023-04-28T01:42:44.073Z,11.26
2023-04-28T01:45:13.115Z,11.26
2023-04-28T01:47:40.915Z,11.34
2023-04-28T01:50:09.163Z,11.28
2023-04-28T01:52:37.962Z,11.23
2023-04-28T01:55:07.060Z,11.31
2023-04-28T01:57:36.058Z,11.36
2023-04-28T02:00:07.594Z,11.40
2023-04-28T02:02:38.781Z,11.40
2023-04-28T02:05:07.246Z,11.25
2023-04-28T02:07:35.298Z,11.28
2023-04-28T02:10:04.818Z,11.25
2023-04-28T02:12:32.748Z,11.21
2023-04-28T02:15:01.671Z,11.22
2023-04-28T02:17:32.781Z,11.23
2023-04-28T02:20:00.649Z,11.23
2023-04-28T02:22:28.939Z,11.34
2023-04-28T02:24:56.923Z,11.31
2023-04-28T02:27:26.257Z,11.34
2023-04-28T02:29:54.272Z,11.33
2023-04-28T02:32:23.493Z,11.32
2023-04-28T02:34:56.190Z,11.21
2023-04-28T02:37:25.460Z,11.26
2023-04-28T02:39:53.317Z,11.30
2023-04-28T02:42:22.325Z,11.28
2023-04-28T02:44:50.911Z,11.32
2023-04-28T02:47:18.783Z,11.31
2023-04-28T02:49:46.623Z,11.36
2023-04-28T02:52:16.307Z,11.26
2023-04-28T02:54:44.073Z,11.23
2023-04-28T02:57:12.791Z,11.26
2023-04-28T02:59:40.469Z,11.34
2023-04-28T03:02:09.126Z,11.36
2023-04-28T03:04:37.248Z,11.39
2023-04-28T03:07:05.415Z,11.37
2023-04-28T03:09:34.794Z,11.26
2023-04-28T03:12:03.408Z,11.27
2023-04-28T03:14:33.176Z,11.28
2023-04-28T03:17:00.811Z,11.28
2023-04-28T03:19:29.042Z,11.35
2023-04-28T03:21:57.110Z,11.38
2023-04-28T03:24:24.944Z,11.40
2023-04-28T03:26:54.701Z,11.35
2023-04-28T03:29:24.363Z,11.32
2023-04-28T03:31:52.913Z,11.26
2023-04-28T03:34:21.011Z,11.33
2023-04-28T03:36:49.047Z,11.31
2023-04-28T03:39:25.268Z,11.32
2023-04-28T03:41:54.451Z,11.38
2023-04-28T03:44:40.565Z,11.35
2023-04-28T03:47:09.087Z,11.21
2023-04-28T03:49:37.717Z,11.21
2023-04-28T03:52:05.547Z,11.32
2023-04-28T03:54:33.668Z,11.40
2023-04-28T03:57:04.546Z,11.44
2023-04-28T03:59:34.498Z,11.43
2023-04-28T04:02:02.284Z,11.44
2023-04-28T04:04:33.815Z,11.48
2023-04-28T04:07:02.164Z,11.48
2023-04-28T04:09:30.989Z,11.42
2023-04-28T04:11:58.786Z,11.40
2023-04-28T04:14:28.050Z,11.45
2023-04-28T04:16:56.252Z,11.46
2023-04-28T04:19:26.797Z,11.48
2023-04-28T04:21:55.699Z,11.53
2023-04-28T04:24:24.174Z,11.52
2023-04-28T04:26:52.141Z,11.53
2023-04-28T04:29:42.127Z,11.48
2023-04-28T04:32:14.124Z,11.46
2023-04-28T04:34:43.249Z,11.49
2023-04-28T04:37:12.630Z,11.46
2023-04-28T04:39:49.387Z,11.45
2023-04-28T04:45:02.890Z,11.26
2023-04-28T04:47:32.369Z,11.21
2023-04-28T04:50:00.088Z,11.18
2023-04-28T04:52:27.889Z,11.14
2023-04-28T04:54:56.395Z,11.10
2023-04-28T04:57:27.184Z,11.08
2023-04-28T05:00:09.747Z,11.07
2023-04-28T05:02:38.640Z,11.06
2023-04-28T05:05:20.722Z,11.06
2023-04-28T05:08:02.364Z,11.07
2023-04-28T05:10:30.195Z,11.12
2023-04-28T05:12:58.036Z,11.14
2023-04-28T05:15:27.474Z,11.15
2023-04-28T05:18:22.565Z,11.18
2023-04-28T05:20:51.011Z,11.17
2023-04-28T05:23:20.357Z,11.20
2023-04-28T05:25:48.821Z,11.17
2023-04-28T05:28:16.831Z,11.13
2023-04-28T05:30:47.596Z,11.08
2023-04-28T05:33:16.761Z,11.01
2023-04-28T05:35:45.077Z,10.91
2023-04-28T05:38:13.463Z,10.86
2023-04-28T05:40:43.448Z,10.86
2023-04-28T05:43:13.407Z,10.87
2023-04-28T05:45:41.846Z,10.86
2023-04-28T05:48:14.108Z,10.83
2023-04-28T05:50:42.294Z,10.85
2023-04-28T05:53:11.426Z,10.79
2023-04-28T05:55:39.561Z,10.82
2023-04-28T05:58:08.112Z,10.75
2023-04-28T06:00:36.323Z,10.75
2023-04-28T06:03:05.472Z,10.78
2023-04-28T06:05:35.453Z,10.71
2023-04-28T06:08:03.595Z,10.69
2023-04-28T06:10:32.371Z,10.68
2023-04-28T06:13:00.481Z,10.63
2023-04-28T06:15:28.710Z,10.60
2023-04-28T06:17:56.450Z,10.65
2023-04-28T06:20:25.730Z,10.76
2023-04-28T06:22:57.509Z,10.68
2023-04-28T06:25:25.706Z,10.64
2023-04-28T06:27:54.446Z,10.67
2023-04-28T06:30:27.378Z,10.64
2023-04-28T06:32:57.790Z,10.65
2023-04-28T06:35:37.562Z,10.63
2023-04-28T06:38:07.992Z,10.69
2023-04-28T06:40:35.792Z,10.65
2023-04-28T06:43:05.741Z,10.71
2023-04-28T06:45:44.787Z,10.66
2023-04-28T06:48:12.807Z,10.69
2023-04-28T06:50:42.338Z,10.70
2023-04-28T06:53:13.435Z,10.73
2023-04-28T06:55:41.495Z,10.77
2023-04-28T06:58:09.734Z,10.74
2023-04-28T07:00:37.787Z,10.79
2023-04-28T07:03:06.016Z,10.82
2023-04-28T07:05:34.613Z,10.76
2023-04-28T07:08:02.373Z,10.83
2023-04-28T07:10:31.545Z,10.84
2023-04-28T07:13:00.234Z,10.89
2023-04-28T07:15:28.085Z,10.92
2023-04-28T07:17:56.209Z,10.97
2023-04-28T07:20:24.214Z,11.00
2023-04-28T07:22:51.889Z,11.01
2023-04-28T07:25:19.754Z,11.02
2023-04-28T07:27:50.139Z,11.12
2023-04-28T07:30:27.207Z,11.13
2023-04-28T07:32:55.551Z,11.14
2023-04-28T07:35:24.181Z,11.25
2023-04-28T07:37:52.104Z,11.25
2023-04-28T07:40:20.293Z,11.38
2023-04-28T07:42:49.549Z,11.46
2023-04-28T07:45:17.340Z,11.58
2023-04-28T07:47:45.264Z,11.73
2023-04-28T07:50:13.189Z,11.81
2023-04-28T07:52:40.958Z,11.84
2023-04-28T07:55:09.108Z,11.97
2023-04-28T07:57:36.944Z,12.06
2023-04-28T08:00:07.720Z,12.08
2023-04-28T08:02:41.189Z,12.20
2023-04-28T08:05:10.810Z,12.19
2023-04-28T08:07:38.895Z,12.27
2023-04-28T08:10:07.810Z,12.28
2023-04-28T08:12:35.572Z,12.26
2023-04-28T08:15:03.970Z,12.36
2023-04-28T08:17:33.205Z,12.47
2023-04-28T08:20:01.330Z,12.57
2023-04-28T08:22:30.067Z,12.58
2023-04-28T08:24:57.786Z,12.63
2023-04-28T08:27:26.123Z,12.68
2023-04-28T08:29:53.809Z,12.65
2023-04-28T08:32:21.537Z,12.71
2023-04-28T08:34:50.514Z,12.76
2023-04-28T08:37:18.555Z,12.88
2023-04-28T08:39:46.372Z,12.93
2023-04-28T08:42:15.032Z,12.92
2023-04-28T08:44:42.840Z,13.27
2023-04-28T08:47:14.436Z,13.49
2023-04-28T08:49:43.351Z,13.69
2023-04-28T08:52:17.808Z,13.79
2023-04-28T08:54:46.970Z,13.79
2023-04-28T08:57:15.001Z,13.71
2023-04-28T08:59:42.843Z,13.72
2023-04-28T09:02:11.318Z,13.67
2023-04-28T09:04:39.620Z,13.70
2023-04-28T09:07:13.713Z,13.71
2023-04-28T09:09:42.197Z,13.81
2023-04-28T09:12:10.085Z,13.71
2023-04-28T09:14:39.507Z,13.65
2023-04-28T09:17:13.244Z,13.54
2023-04-28T09:19:42.922Z,13.53
2023-04-28T09:22:25.445Z,13.61
2023-04-28T09:24:55.617Z,13.79
2023-04-28T09:27:29.103Z,13.90
2023-04-28T09:29:57.427Z,13.85
2023-04-28T09:32:27.680Z,13.86
2023-04-28T09:34:57.194Z,13.90
2023-04-28T09:37:27.239Z,13.85
2023-04-28T09:39:57.280Z,13.87
2023-04-28T09:42:36.322Z,13.84
2023-04-28T09:45:05.918Z,13.87
2023-04-28T09:47:35.603Z,13.90
2023-04-28T09:50:05.075Z,13.94
2023-04-28T09:52:35.023Z,13.96
2023-04-28T09:55:06.952Z,13.98
2023-04-28T09:57:37.509Z,14.06
2023-04-28T10:00:07.281Z,14.04
2023-04-28T10:05:10.918Z,14.01
2023-04-28T10:07:40.172Z,13.98
2023-04-28T10:10:10.249Z,14.23
2023-04-28T10:12:39.202Z,14.30
2023-04-28T10:15:09.550Z,14.42
2023-04-28T10:17:38.355Z,14.40
2023-04-28T10:20:08.558Z,14.34
2023-04-28T10:22:52.594Z,14.27
2023-04-28T10:25:29.954Z,14.30
2023-04-28T10:27:59.561Z,14.26
2023-04-28T10:30:29.873Z,14.23
2023-04-28T10:33:26.915Z,14.21
2023-04-28T10:35:55.526Z,14.21
2023-04-28T10:41:34.895Z,14.38
2023-04-28T10:44:02.905Z,14.45
2023-04-28T10:47:03.308Z,14.55
2023-04-28T10:50:04.655Z,14.61
2023-04-28T10:52:51.507Z,14.57
2023-04-28T10:55:40.025Z,14.55
2023-04-28T10:58:36.184Z,14.43
2023-04-28T11:01:26.428Z,14.35
2023-04-28T11:04:00.745Z,14.33
2023-04-28T11:06:31.907Z,14.29
2023-04-28T11:09:02.526Z,14.28
2023-04-28T11:11:32.599Z,14.25
2023-04-28T11:14:35.130Z,14.21
2023-04-28T11:17:04.545Z,14.12
2023-04-28T11:19:34.095Z,14.12
2023-04-28T11:22:03.629Z,14.10
2023-04-28T11:24:32.289Z,14.11
2023-04-28T11:27:01.540Z,14.12
2023-04-28T11:29:36.061Z,14.16
2023-04-28T11:32:05.211Z,14.30
2023-04-28T11:34:33.021Z,14.45
2023-04-28T11:37:00.967Z,14.51
2023-04-28T11:39:30.970Z,14.52
2023-04-28T11:42:00.142Z,14.58
2023-04-28T11:44:29.384Z,14.57
2023-04-28T11:47:02.151Z,14.56
2023-04-28T11:49:36.553Z,14.62
2023-04-28T11:52:06.833Z,14.73
2023-04-28T11:54:35.223Z,14.92
2023-04-28T11:57:04.100Z,14.90
2023-04-28T11:59:34.010Z,14.65
2023-04-28T12:02:07.442Z,14.60
2023-04-28T12:04:37.671Z,14.61
2023-04-28T12:07:08.052Z,14.62
2023-04-28T12:09:36.138Z,14.64
2023-04-28T12:12:05.960Z,14.57
2023-04-28T12:14:35.620Z,14.49
2023-04-28T12:17:05.428Z,14.49
2023-04-28T12:19:46.137Z,14.56
2023-04-28T12:22:17.378Z,14.63
2023-04-28T12:24:46.694Z,14.79
2023-04-28T12:27:21.698Z,14.91
2023-04-28T12:29:49.887Z,14.93
2023-04-28T12:32:20.250Z,14.88
2023-04-28T12:34:50.870Z,14.85
2023-04-28T12:37:18.755Z,14.82
2023-04-28T12:39:46.920Z,14.75
2023-04-28T12:42:15.013Z,14.75
2023-04-28T12:44:42.851Z,14.73
2023-04-28T12:47:12.162Z,14.83
2023-04-28T12:55:46.937Z,15.01
2023-04-28T12:58:15.078Z,15.05
2023-04-28T13:00:43.213Z,15.01
2023-04-28T13:03:11.139Z,15.00
2023-04-28T13:05:39.281Z,14.93
2023-04-28T13:08:07.005Z,14.97
2023-04-28T13:10:35.317Z,14.93
2023-04-28T13:13:05.504Z,14.89
2023-04-28T13:15:33.305Z,14.86
2023-04-28T13:18:01.396Z,14.89
2023-04-28T13:20:29.705Z,14.93
2023-04-28T13:27:04.606Z,15.01
2023-04-28T13:36:14.880Z,15.43
2023-04-28T13:38:45.426Z,15.48
2023-04-28T13:41:13.112Z,15.37
2023-04-28T13:43:41.198Z,15.29
2023-04-28T13:46:09.201Z,15.24
2023-04-28T13:48:37.455Z,15.15
2023-04-28T13:51:06.046Z,15.00
2023-04-28T13:53:36.578Z,14.98
2023-04-28T13:56:05.286Z,15.00
2023-04-28T13:58:33.215Z,14.98
2023-04-28T14:01:01.217Z,15.02
2023-04-28T14:03:29.041Z,15.09
2023-04-28T14:05:59.053Z,15.15
2023-04-28T14:08:28.044Z,15.06
2023-04-28T14:10:57.288Z,14.98
2023-04-28T14:13:25.427Z,14.91
2023-04-28T14:15:59.257Z,14.89
2023-04-28T14:18:27.654Z,14.89
2023-04-28T14:20:56.098Z,14.89
2023-04-28T14:23:24.066Z,14.93
2023-04-28T14:25:56.174Z,14.94
2023-04-28T14:28:25.488Z,14.97
2023-04-28T14:30:54.501Z,14.98
2023-04-28T14:33:22.978Z,14.95
2023-04-28T14:35:50.812Z,14.94
2023-04-28T14:38:19.095Z,14.99
2023-04-28T14:40:46.949Z,15.24
2023-04-28T14:43:14.786Z,15.56
2023-04-28T14:45:44.720Z,15.74
2023-04-28T14:48:13.312Z,15.76
2023-04-28T14:50:41.940Z,15.72
2023-04-28T14:53:09.886Z,15.72
2023-04-28T14:55:37.902Z,15.70
2023-04-28T14:58:05.601Z,15.72
2023-04-28T15:00:33.372Z,15.69
2023-04-28T15:03:02.627Z,15.57
2023-04-28T15:05:30.383Z,15.51
2023-04-28T15:07:59.719Z,15.58
2023-04-28T15:10:32.084Z,15.72
2023-04-28T15:13:00.630Z,15.80
2023-04-28T15:15:28.596Z,15.87
2023-04-28T15:18:00.683Z,15.90
2023-04-28T15:20:30.663Z,16.21
2023-04-28T15:22:58.924Z,16.48
2023-04-28T15:25:27.235Z,16.47
2023-04-28T15:27:55.137Z,16.75
2023-04-28T15:30:23.500Z,16.58
2023-04-28T15:32:51.819Z,16.52
2023-04-28T15:35:19.680Z,16.74
2023-04-28T15:37:49.198Z,16.88
2023-04-28T15:40:19.213Z,16.86
2023-04-28T15:42:51.648Z,17.11
2023-04-28T15:45:20.750Z,17.40
2023-04-28T15:47:50.366Z,17.29
2023-04-28T15:50:19.849Z,17.34
2023-04-28T15:52:51.126Z,17.13
2023-04-28T15:55:20.920Z,17.21
2023-04-28T15:57:49.837Z,17.43
2023-04-28T16:00:18.782Z,17.41
2023-04-28T16:02:46.839Z,17.37
2023-04-28T16:05:14.723Z,17.33
2023-04-28T16:07:42.635Z,17.28
2023-04-28T16:10:13.588Z,17.40
2023-04-28T16:12:41.999Z,17.35
2023-04-28T16:15:12.260Z,17.09
2023-04-28T16:17:40.489Z,17.11
2023-04-28T16:20:10.062Z,17.18
2023-04-28T16:22:38.607Z,17.06
2023-04-28T16:25:07.196Z,17.02
2023-04-28T16:27:37.465Z,16.98
2023-04-28T16:30:07.481Z,16.86
2023-04-28T16:32:36.493Z,16.81
2023-04-28T16:35:06.227Z,16.76
2023-04-28T16:37:36.300Z,16.78
2023-04-28T16:40:04.890Z,16.65
2023-04-28T16:42:32.909Z,16.54
2023-04-28T16:45:02.077Z,16.47
2023-04-28T16:47:30.982Z,16.41
2023-04-28T16:49:58.842Z,16.36
2023-04-28T16:52:27.459Z,16.33
2023-04-28T16:54:55.150Z,16.30
2023-04-28T16:57:23.362Z,16.29
2023-04-28T16:59:51.887Z,16.28
2023-04-28T17:02:21.290Z,16.29
2023-04-28T17:04:49.023Z,16.41
2023-04-28T17:07:16.652Z,16.33
2023-04-28T17:09:44.722Z,16.32
2023-04-28T17:12:12.528Z,16.37
2023-04-28T17:14:40.209Z,16.33
2023-04-28T17:17:08.743Z,16.27
2023-04-28T17:19:38.016Z,16.26
2023-04-28T17:22:05.708Z,16.21
2023-04-28T17:24:33.364Z,16.11
2023-04-28T17:27:01.428Z,16.11
2023-04-28T17:29:29.242Z,16.01
2023-04-28T17:31:57.592Z,15.94
2023-04-28T17:34:25.650Z,15.88
2023-04-28T17:36:54.957Z,15.83
2023-04-28T17:39:22.952Z,15.83
2023-04-28T17:41:50.852Z,15.87
2023-04-28T17:44:19.589Z,15.68
2023-04-28T17:46:47.262Z,15.44
2023-04-28T17:49:14.963Z,14.98
2023-04-28T17:51:42.980Z,14.81
2023-04-28T17:54:12.403Z,14.74
2023-04-28T17:56:40.482Z,14.75
2023-04-28T17:59:08.899Z,14.60
2023-04-28T18:01:36.851Z,14.53
2023-04-28T18:04:04.793Z,14.58
2023-04-28T18:06:33.116Z,14.66
2023-04-28T18:09:01.428Z,14.67
2023-04-28T18:11:31.776Z,14.54
2023-04-28T18:13:59.574Z,14.60
2023-04-28T18:16:28.937Z,14.60
2023-04-28T18:18:57.126Z,14.58
2023-04-28T18:21:24.793Z,14.55
2023-04-28T18:23:52.622Z,14.61
2023-04-28T18:26:22.169Z,14.59
2023-04-28T18:28:51.793Z,14.54
2023-04-28T18:31:19.587Z,14.52
2023-04-28T18:33:47.616Z,14.40
2023-04-28T18:36:15.544Z,14.32
2023-04-28T18:38:44.846Z,14.28
2023-04-28T18:41:14.061Z,14.22
2023-04-28T18:43:42.820Z,14.26
2023-04-28T18:46:12.191Z,14.19
2023-04-28T18:48:40.309Z,14.21
2023-04-28T18:51:08.183Z,14.13
2023-04-28T18:53:36.913Z,14.10
2023-04-28T18:56:04.966Z,14.05
2023-04-28T18:58:33.234Z,14.01
2023-04-28T19:01:01.507Z,13.96
2023-04-28T19:03:31.829Z,13.92
2023-04-28T19:05:59.926Z,13.86
2023-04-28T19:08:27.832Z,13.88
2023-04-28T19:10:58.501Z,13.86
2023-04-28T19:13:26.674Z,13.81
2023-04-28T19:15:56.184Z,13.79
2023-04-28T19:18:23.925Z,13.79
2023-04-28T19:21:00.842Z,13.77
2023-04-28T19:23:29.409Z,13.73
2023-04-28T19:25:58.363Z,13.72
2023-04-28T19:28:27.059Z,13.76
2023-04-28T19:30:56.164Z,13.79
2023-04-28T19:33:27.741Z,13.87
2023-04-28T19:35:58.362Z,13.85
2023-04-28T19:38:28.336Z,13.83
2023-04-28T19:41:01.169Z,13.79
2023-04-28T19:43:28.998Z,13.79
2023-04-28T19:45:57.465Z,13.92
2023-04-28T19:48:26.151Z,14.01
2023-04-28T19:50:54.202Z,13.93
2023-04-28T19:53:23.868Z,13.80
2023-04-28T19:55:51.708Z,13.82
2023-04-28T19:58:19.690Z,13.79
2023-04-28T20:00:48.216Z,13.73
2023-04-28T20:03:17.152Z,13.58
2023-04-28T20:05:45.263Z,13.56
2023-04-28T20:08:13.428Z,13.54
2023-04-28T20:10:42.763Z,13.51
2023-04-28T20:13:10.776Z,13.58
2023-04-28T20:15:38.936Z,13.51
2023-04-28T20:18:07.267Z,13.46
2023-04-28T20:20:35.108Z,13.31
2023-04-28T20:23:02.789Z,13.26
2023-04-28T20:25:30.519Z,13.20
2023-04-28T20:27:59.996Z,13.19
2023-04-28T20:30:28.259Z,13.15
2023-04-28T20:32:55.976Z,13.19
2023-04-28T20:35:23.958Z,13.23
2023-04-28T20:37:52.701Z,13.14
2023-04-28T20:40:20.580Z,13.12
2023-04-28T20:42:49.502Z,13.03
2023-04-28T20:45:19.443Z,13.01
2023-04-28T20:47:47.174Z,13.01
2023-04-28T20:50:15.585Z,13.00
2023-04-28T20:52:43.455Z,13.00
2023-04-28T20:55:12.361Z,12.91
2023-04-28T20:57:40.566Z,12.94
2023-04-28T21:00:09.179Z,13.01
2023-04-28T21:02:38.501Z,13.09
2023-04-28T21:05:07.083Z,13.19
2023-04-28T21:07:35.580Z,13.27
2023-04-28T21:10:03.359Z,13.33
2023-04-28T21:12:31.147Z,13.15
2023-04-28T21:14:59.488Z,13.11
2023-04-28T21:17:27.636Z,13.03
2023-04-28T21:19:57.414Z,12.95
2023-04-28T21:22:25.102Z,12.85
2023-04-28T21:24:54.443Z,12.84
2023-04-28T21:27:22.257Z,12.82
2023-04-28T21:29:50.099Z,12.77
2023-04-28T21:32:18.077Z,12.74
2023-04-28T21:34:48.273Z,12.74
2023-04-28T21:37:17.722Z,12.70
2023-04-28T21:39:46.090Z,12.75
2023-04-28T21:42:13.912Z,12.72
2023-04-28T21:44:42.034Z,12.65
2023-04-28T21:47:09.830Z,12.66
2023-04-28T21:49:37.564Z,12.70
2023-04-28T21:52:05.716Z,12.64
2023-04-28T21:54:35.693Z,12.68
2023-04-28T21:57:03.503Z,12.64
2023-04-28T21:59:31.669Z,12.66
2023-04-28T22:02:01.907Z,12.66
2023-04-28T22:04:30.812Z,12.64
2023-04-28T22:06:58.729Z,12.62
2023-04-28T22:09:27.253Z,12.62
2023-04-28T22:11:56.282Z,12.62
2023-04-28T22:14:39.451Z,12.54
2023-04-28T22:17:09.121Z,12.57
2023-04-28T22:19:36.805Z,12.60
2023-04-28T22:22:05.400Z,12.62
2023-04-28T22:24:33.032Z,12.55
2023-04-28T22:27:02.414Z,12.50
2023-04-28T22:29:30.244Z,12.47
2023-04-28T22:31:58.780Z,12.41
2023-04-28T22:34:26.585Z,12.38
2023-04-28T22:36:54.335Z,12.41
2023-04-28T22:39:24.870Z,12.47
2023-04-28T22:41:52.839Z,12.56
2023-04-28T22:44:22.311Z,12.59
2023-04-28T22:46:51.399Z,12.65
2023-04-28T22:49:24.873Z,12.65
2023-04-28T22:51:53.269Z,12.65
2023-04-28T22:54:22.855Z,12.66
2023-04-28T22:56:52.752Z,12.63
2023-04-28T22:59:24.888Z,12.64
2023-04-28T23:01:54.666Z,12.64
2023-04-28T23:04:23.670Z,12.64
2023-04-28T23:06:53.183Z,12.68
2023-04-28T23:09:21.237Z,12.71
2023-04-28T23:11:48.848Z,12.76
2023-04-28T23:14:16.571Z,12.75
2023-04-28T23:16:45.680Z,12.78
2023-04-28T23:19:13.482Z,12.81
2023-04-28T23:21:41.432Z,12.79
2023-04-28T23:24:10.899Z,12.77
2023-04-28T23:26:38.798Z,12.68
2023-04-28T23:29:08.924Z,12.70
2023-04-28T23:31:39.687Z,12.70
2023-04-28T23:34:09.380Z,12.69
2023-04-28T23:36:38.091Z,12.66
2023-04-28T23:39:06.441Z,12.62
2023-04-28T23:41:34.399Z,12.62
2023-04-28T23:44:02.062Z,12.56
2023-04-28T23:46:30.032Z,12.55
2023-04-28T23:48:58.358Z,12.51
2023-04-28T23:51:27.476Z,12.49
2023-04-28T23:53:55.424Z,12.44
2023-04-28T23:56:23.780Z,12.37
2023-04-28T23:58:52.149Z,12.36
